sensor_id;sensor_type;location;lat;lon;timestamp;P1;durP1;ratioP1;P2;durP2;ratioP2
33786;SDS011;29742;51.540;9.358;2023-03-20T00:04:47;0.30;;;0.10;;
33786;SDS011;29742;51.540;9.358;2023-03-20T00:09:47;0.20;;;0.20;;
33786;SDS011;29742;51.540;9.358;2023-03-20T00:14:48;0.20;;;0.13;;
33786;SDS011;29742;51.540;9.358;2023-03-20T00:19:48;0.40;;;0.40;;
33786;SDS011;29742;51.540;9.358;2023-03-20T00:24:49;0.40;;;0.20;;
33786;SDS011;29742;51.540;9.358;2023-03-20T00:29:49;0.20;;;0.20;;
33786;SDS011;29742;51.540;9.358;2023-03-20T00:34:50;0.22;;;0.20;;
33786;SDS011;29742;51.540;9.358;2023-03-20T00:39:50;0.10;;;0.10;;
33786;SDS011;29742;51.540;9.358;2023-03-20T00:44:51;0.10;;;0.00;;
33786;SDS011;29742;51.540;9.358;2023-03-20T00:49:53;0.10;;;0.10;;
33786;SDS011;29742;51.540;9.358;2023-03-20T00:54:54;0.13;;;0.13;;
33786;SDS011;29742;51.540;9.358;2023-03-20T00:59:57;0.08;;;0.05;;
33786;SDS011;29742;51.540;9.358;2023-03-20T01:05:00;0.55;;;0.30;;
33786;SDS011;29742;51.540;9.358;2023-03-20T01:10:03;0.43;;;0.15;;
33786;SDS011;29742;51.540;9.358;2023-03-20T01:15:08;0.17;;;0.10;;
33786;SDS011;29742;51.540;9.358;2023-03-20T01:20:20;0.28;;;0.20;;
33786;SDS011;29742;51.540;9.358;2023-03-20T01:25:22;0.20;;;0.20;;
33786;SDS011;29742;51.540;9.358;2023-03-20T01:30:27;0.20;;;0.20;;
33786;SDS011;29742;51.540;9.358;2023-03-20T01:35:28;0.20;;;0.08;;
33786;SDS011;29742;51.540;9.358;2023-03-20T01:40:38;0.10;;;0.10;;
33786;SDS011;29742;51.540;9.358;2023-03-20T01:45:51;2.97;;;0.30;;
33786;SDS011;29742;51.540;9.358;2023-03-20T01:56:08;0.13;;;0.13;;
33786;SDS011;29742;51.540;9.358;2023-03-20T02:01:09;0.25;;;0.20;;
33786;SDS011;29742;51.540;9.358;2023-03-20T02:06:12;1.08;;;0.35;;
33786;SDS011;29742;51.540;9.358;2023-03-20T02:11:13;0.55;;;0.30;;
33786;SDS011;29742;51.540;9.358;2023-03-20T02:16:15;0.20;;;0.10;;
33786;SDS011;29742;51.540;9.358;2023-03-20T02:48:23;0.50;;;0.30;;
33786;SDS011;29742;51.540;9.358;2023-03-20T02:53:33;0.32;;;0.30;;
33786;SDS011;29742;51.540;9.358;2023-03-20T02:58:59;0.40;;;0.38;;
33786;SDS011;29742;51.540;9.358;2023-03-20T03:04:25;1.20;;;0.50;;
33786;SDS011;29742;51.540;9.358;2023-03-20T03:09:28;1.05;;;0.60;;
33786;SDS011;29742;51.540;9.358;2023-03-20T03:19:48;0.90;;;0.40;;
33786;SDS011;29742;51.540;9.358;2023-03-20T03:24:51;0.43;;;0.43;;
33786;SDS011;29742;51.540;9.358;2023-03-20T03:29:54;1.75;;;0.50;;
33786;SDS011;29742;51.540;9.358;2023-03-20T03:34:55;0.55;;;0.35;;
33786;SDS011;29742;51.540;9.358;2023-03-20T03:45:39;1.15;;;0.70;;
33786;SDS011;29742;51.540;9.358;2023-03-20T03:51:07;0.55;;;0.40;;
33786;SDS011;29742;51.540;9.358;2023-03-20T03:56:10;0.60;;;0.55;;
33786;SDS011;29742;51.540;9.358;2023-03-20T04:01:11;0.60;;;0.38;;
33786;SDS011;29742;51.540;9.358;2023-03-20T04:06:13;1.02;;;0.70;;
33786;SDS011;29742;51.540;9.358;2023-03-20T04:11:16;0.85;;;0.50;;
33786;SDS011;29742;51.540;9.358;2023-03-20T04:16:18;0.52;;;0.47;;
33786;SDS011;29742;51.540;9.358;2023-03-20T04:21:20;0.70;;;0.50;;
33786;SDS011;29742;51.540;9.358;2023-03-20T04:26:20;0.60;;;0.47;;
33786;SDS011;29742;51.540;9.358;2023-03-20T04:31:22;0.57;;;0.50;;
33786;SDS011;29742;51.540;9.358;2023-03-20T04:36:23;1.33;;;0.70;;
33786;SDS011;29742;51.540;9.358;2023-03-20T04:41:23;0.80;;;0.60;;
33786;SDS011;29742;51.540;9.358;2023-03-20T04:46:23;0.52;;;0.40;;
33786;SDS011;29742;51.540;9.358;2023-03-20T04:51:24;0.60;;;0.40;;
33786;SDS011;29742;51.540;9.358;2023-03-20T04:56:24;0.40;;;0.40;;
33786;SDS011;29742;51.540;9.358;2023-03-20T05:01:24;1.35;;;0.80;;
33786;SDS011;29742;51.540;9.358;2023-03-20T05:06:28;0.45;;;0.40;;
33786;SDS011;29742;51.540;9.358;2023-03-20T05:11:30;0.90;;;0.60;;
33786;SDS011;29742;51.540;9.358;2023-03-20T05:16:31;0.60;;;0.60;;
33786;SDS011;29742;51.540;9.358;2023-03-20T05:21:31;0.55;;;0.50;;
33786;SDS011;29742;51.540;9.358;2023-03-20T05:26:32;0.95;;;0.60;;
33786;SDS011;29742;51.540;9.358;2023-03-20T05:31:32;1.33;;;0.73;;
33786;SDS011;29742;51.540;9.358;2023-03-20T05:36:32;0.68;;;0.52;;
33786;SDS011;29742;51.540;9.358;2023-03-20T05:41:33;0.80;;;0.55;;
33786;SDS011;29742;51.540;9.358;2023-03-20T05:46:33;0.82;;;0.70;;
33786;SDS011;29742;51.540;9.358;2023-03-20T05:51:33;0.73;;;0.55;;
33786;SDS011;29742;51.540;9.358;2023-03-20T05:56:34;1.00;;;0.73;;
33786;SDS011;29742;51.540;9.358;2023-03-20T06:01:34;0.73;;;0.70;;
33786;SDS011;29742;51.540;9.358;2023-03-20T06:06:35;0.55;;;0.55;;
33786;SDS011;29742;51.540;9.358;2023-03-20T06:11:36;0.60;;;0.50;;
33786;SDS011;29742;51.540;9.358;2023-03-20T06:16:37;1.02;;;0.47;;
33786;SDS011;29742;51.540;9.358;2023-03-20T06:21:37;0.80;;;0.70;;
33786;SDS011;29742;51.540;9.358;2023-03-20T06:26:37;0.82;;;0.65;;
33786;SDS011;29742;51.540;9.358;2023-03-20T06:31:38;0.73;;;0.60;;
33786;SDS011;29742;51.540;9.358;2023-03-20T06:36:38;0.55;;;0.45;;
33786;SDS011;29742;51.540;9.358;2023-03-20T06:41:39;0.85;;;0.60;;
33786;SDS011;29742;51.540;9.358;2023-03-20T06:46:40;1.10;;;0.77;;
33786;SDS011;29742;51.540;9.358;2023-03-20T06:51:40;0.82;;;0.73;;
33786;SDS011;29742;51.540;9.358;2023-03-20T06:56:40;0.65;;;0.65;;
33786;SDS011;29742;51.540;9.358;2023-03-20T07:01:41;0.93;;;0.80;;
33786;SDS011;29742;51.540;9.358;2023-03-20T07:06:41;0.98;;;0.73;;
33786;SDS011;29742;51.540;9.358;2023-03-20T07:11:42;1.00;;;0.70;;
33786;SDS011;29742;51.540;9.358;2023-03-20T07:16:42;0.82;;;0.60;;
33786;SDS011;29742;51.540;9.358;2023-03-20T07:21:43;1.55;;;1.10;;
33786;SDS011;29742;51.540;9.358;2023-03-20T07:26:43;1.63;;;1.30;;
33786;SDS011;29742;51.540;9.358;2023-03-20T07:31:44;1.42;;;0.95;;
33786;SDS011;29742;51.540;9.358;2023-03-20T07:36:45;1.58;;;1.15;;
33786;SDS011;29742;51.540;9.358;2023-03-20T07:41:45;1.50;;;1.20;;
33786;SDS011;29742;51.540;9.358;2023-03-20T07:46:46;1.50;;;1.20;;
33786;SDS011;29742;51.540;9.358;2023-03-20T07:51:47;1.25;;;1.15;;
33786;SDS011;29742;51.540;9.358;2023-03-20T07:56:47;1.73;;;1.15;;
33786;SDS011;29742;51.540;9.358;2023-03-20T08:01:48;1.58;;;1.45;;
33786;SDS011;29742;51.540;9.358;2023-03-20T08:06:48;1.90;;;1.50;;
33786;SDS011;29742;51.540;9.358;2023-03-20T08:11:49;2.63;;;1.67;;
33786;SDS011;29742;51.540;9.358;2023-03-20T08:16:50;2.53;;;1.70;;
33786;SDS011;29742;51.540;9.358;2023-03-20T08:21:50;3.00;;;2.00;;
33786;SDS011;29742;51.540;9.358;2023-03-20T08:26:51;1.92;;;1.63;;
33786;SDS011;29742;51.540;9.358;2023-03-20T08:31:51;2.75;;;2.10;;
33786;SDS011;29742;51.540;9.358;2023-03-20T08:36:52;2.33;;;1.70;;
33786;SDS011;29742;51.540;9.358;2023-03-20T08:41:52;1.60;;;1.20;;
33786;SDS011;29742;51.540;9.358;2023-03-20T08:46:52;2.10;;;1.67;;
33786;SDS011;29742;51.540;9.358;2023-03-20T08:51:54;2.67;;;1.98;;
33786;SDS011;29742;51.540;9.358;2023-03-20T08:56:54;2.72;;;1.92;;
33786;SDS011;29742;51.540;9.358;2023-03-20T09:01:55;1.77;;;1.30;;
33786;SDS011;29742;51.540;9.358;2023-03-20T09:06:55;2.33;;;1.45;;
33786;SDS011;29742;51.540;9.358;2023-03-20T09:11:56;2.92;;;2.13;;
33786;SDS011;29742;51.540;9.358;2023-03-20T09:16:56;3.25;;;2.03;;
33786;SDS011;29742;51.540;9.358;2023-03-20T09:21:57;2.15;;;1.65;;
33786;SDS011;29742;51.540;9.358;2023-03-20T09:26:57;3.15;;;2.30;;
33786;SDS011;29742;51.540;9.358;2023-03-20T09:31:59;2.47;;;1.67;;
33786;SDS011;29742;51.540;9.358;2023-03-20T09:37:00;2.42;;;1.77;;
33786;SDS011;29742;51.540;9.358;2023-03-20T09:42:06;1.67;;;1.33;;
33786;SDS011;29742;51.540;9.358;2023-03-20T09:58:12;1.90;;;1.23;;
33786;SDS011;29742;51.540;9.358;2023-03-20T10:08:28;1.60;;;1.50;;
33786;SDS011;29742;51.540;9.358;2023-03-20T10:18:38;1.88;;;1.25;;
33786;SDS011;29742;51.540;9.358;2023-03-20T10:23:41;1.30;;;1.00;;
33786;SDS011;29742;51.540;9.358;2023-03-20T10:29:04;2.10;;;1.42;;
33786;SDS011;29742;51.540;9.358;2023-03-20T10:39:31;2.10;;;1.38;;
33786;SDS011;29742;51.540;9.358;2023-03-20T10:44:38;1.23;;;1.10;;
33786;SDS011;29742;51.540;9.358;2023-03-20T10:49:45;2.07;;;1.50;;
33786;SDS011;29742;51.540;9.358;2023-03-20T10:54:58;2.75;;;1.80;;
33786;SDS011;29742;51.540;9.358;2023-03-20T11:00:00;1.77;;;1.38;;
33786;SDS011;29742;51.540;9.358;2023-03-20T11:05:01;2.53;;;1.05;;
33786;SDS011;29742;51.540;9.358;2023-03-20T11:10:17;1.08;;;0.98;;
33786;SDS011;29742;51.540;9.358;2023-03-20T11:20:18;1.10;;;1.00;;
33786;SDS011;29742;51.540;9.358;2023-03-20T11:25:27;1.25;;;1.10;;
33786;SDS011;29742;51.540;9.358;2023-03-20T11:30:30;1.02;;;0.93;;
33786;SDS011;29742;51.540;9.358;2023-03-20T11:35:30;1.13;;;0.95;;
33786;SDS011;29742;51.540;9.358;2023-03-20T11:40:32;1.70;;;1.10;;
33786;SDS011;29742;51.540;9.358;2023-03-20T11:45:36;1.25;;;1.00;;
33786;SDS011;29742;51.540;9.358;2023-03-20T11:50:42;1.92;;;1.13;;
33786;SDS011;29742;51.540;9.358;2023-03-20T11:55:58;1.55;;;1.10;;
33786;SDS011;29742;51.540;9.358;2023-03-20T12:01:00;1.23;;;0.90;;
33786;SDS011;29742;51.540;9.358;2023-03-20T12:06:04;0.80;;;0.68;;
33786;SDS011;29742;51.540;9.358;2023-03-20T12:11:08;3.50;;;0.88;;
33786;SDS011;29742;51.540;9.358;2023-03-20T12:16:20;2.33;;;0.88;;
33786;SDS011;29742;51.540;9.358;2023-03-20T12:27:14;0.85;;;0.80;;
33786;SDS011;29742;51.540;9.358;2023-03-20T12:37:42;0.93;;;0.70;;
33786;SDS011;29742;51.540;9.358;2023-03-20T12:58:58;1.33;;;0.90;;
33786;SDS011;29742;51.540;9.358;2023-03-20T13:25:20;1.02;;;0.75;;
33786;SDS011;29742;51.540;9.358;2023-03-20T13:30:30;2.72;;;0.65;;
33786;SDS011;29742;51.540;9.358;2023-03-20T13:35:38;0.98;;;0.57;;
33786;SDS011;29742;51.540;9.358;2023-03-20T13:40:42;0.60;;;0.60;;
33786;SDS011;29742;51.540;9.358;2023-03-20T13:45:45;0.65;;;0.65;;
33786;SDS011;29742;51.540;9.358;2023-03-20T14:01:17;1.20;;;0.50;;
33786;SDS011;29742;51.540;9.358;2023-03-20T14:11:30;1.02;;;0.70;;
33786;SDS011;29742;51.540;9.358;2023-03-20T14:16:35;1.63;;;0.63;;
33786;SDS011;29742;51.540;9.358;2023-03-20T14:21:35;1.55;;;0.65;;
33786;SDS011;29742;51.540;9.358;2023-03-20T14:26:36;1.23;;;0.63;;
33786;SDS011;29742;51.540;9.358;2023-03-20T14:31:37;0.30;;;0.30;;
33786;SDS011;29742;51.540;9.358;2023-03-20T14:57:42;0.30;;;0.30;;
33786;SDS011;29742;51.540;9.358;2023-03-20T15:02:44;0.30;;;0.30;;
33786;SDS011;29742;51.540;9.358;2023-03-20T15:07:45;1.08;;;0.45;;
33786;SDS011;29742;51.540;9.358;2023-03-20T15:12:45;0.73;;;0.40;;
33786;SDS011;29742;51.540;9.358;2023-03-20T15:17:46;0.38;;;0.32;;
33786;SDS011;29742;51.540;9.358;2023-03-20T15:22:51;0.55;;;0.40;;
33786;SDS011;29742;51.540;9.358;2023-03-20T15:27:58;0.70;;;0.47;;
33786;SDS011;29742;51.540;9.358;2023-03-20T15:32:59;0.35;;;0.28;;
33786;SDS011;29742;51.540;9.358;2023-03-20T15:38:03;0.77;;;0.35;;
33786;SDS011;29742;51.540;9.358;2023-03-20T15:43:19;0.38;;;0.38;;
33786;SDS011;29742;51.540;9.358;2023-03-20T15:48:21;1.15;;;0.60;;
33786;SDS011;29742;51.540;9.358;2023-03-20T15:53:25;0.43;;;0.35;;
33786;SDS011;29742;51.540;9.358;2023-03-20T15:58:28;0.40;;;0.38;;
33786;SDS011;29742;51.540;9.358;2023-03-20T16:03:31;0.45;;;0.32;;
33786;SDS011;29742;51.540;9.358;2023-03-20T16:08:32;0.30;;;0.30;;
33786;SDS011;29742;51.540;9.358;2023-03-20T16:13:35;0.70;;;0.40;;
33786;SDS011;29742;51.540;9.358;2023-03-20T16:18:38;0.43;;;0.43;;
33786;SDS011;29742;51.540;9.358;2023-03-20T16:23:40;1.02;;;0.40;;
33786;SDS011;29742;51.540;9.358;2023-03-20T16:28:50;0.43;;;0.43;;
33786;SDS011;29742;51.540;9.358;2023-03-20T16:33:56;0.40;;;0.40;;
33786;SDS011;29742;51.540;9.358;2023-03-20T16:39:05;1.10;;;0.50;;
33786;SDS011;29742;51.540;9.358;2023-03-20T16:44:31;0.20;;;0.20;;
33786;SDS011;29742;51.540;9.358;2023-03-20T16:49:49;0.50;;;0.50;;
33786;SDS011;29742;51.540;9.358;2023-03-20T16:54:56;0.88;;;0.50;;
33786;SDS011;29742;51.540;9.358;2023-03-20T16:59:58;0.30;;;0.30;;
33786;SDS011;29742;51.540;9.358;2023-03-20T17:05:05;0.30;;;0.30;;
33786;SDS011;29742;51.540;9.358;2023-03-20T17:15:18;0.30;;;0.30;;
33786;SDS011;29742;51.540;9.358;2023-03-20T17:20:23;0.40;;;0.40;;
33786;SDS011;29742;51.540;9.358;2023-03-20T17:25:25;0.30;;;0.30;;
33786;SDS011;29742;51.540;9.358;2023-03-20T17:30:25;0.38;;;0.30;;
33786;SDS011;29742;51.540;9.358;2023-03-20T17:35:26;0.35;;;0.35;;
33786;SDS011;29742;51.540;9.358;2023-03-20T17:40:26;0.40;;;0.40;;
33786;SDS011;29742;51.540;9.358;2023-03-20T17:45:26;0.40;;;0.40;;
33786;SDS011;29742;51.540;9.358;2023-03-20T17:50:27;0.63;;;0.50;;
33786;SDS011;29742;51.540;9.358;2023-03-20T17:55:27;0.47;;;0.47;;
33786;SDS011;29742;51.540;9.358;2023-03-20T18:00:28;0.35;;;0.30;;
33786;SDS011;29742;51.540;9.358;2023-03-20T18:05:28;0.52;;;0.30;;
33786;SDS011;29742;51.540;9.358;2023-03-20T18:10:31;0.38;;;0.30;;
33786;SDS011;29742;51.540;9.358;2023-03-20T18:15:32;1.73;;;0.55;;
33786;SDS011;29742;51.540;9.358;2023-03-20T18:20:32;0.50;;;0.40;;
33786;SDS011;29742;51.540;9.358;2023-03-20T18:25:34;0.30;;;0.30;;
33786;SDS011;29742;51.540;9.358;2023-03-20T18:30:36;0.32;;;0.30;;
33786;SDS011;29742;51.540;9.358;2023-03-20T18:35:42;0.30;;;0.30;;
33786;SDS011;29742;51.540;9.358;2023-03-20T18:40:43;0.60;;;0.50;;
33786;SDS011;29742;51.540;9.358;2023-03-20T18:45:46;0.40;;;0.40;;
33786;SDS011;29742;51.540;9.358;2023-03-20T18:50:46;0.55;;;0.32;;
33786;SDS011;29742;51.540;9.358;2023-03-20T18:55:49;0.20;;;0.20;;
33786;SDS011;29742;51.540;9.358;2023-03-20T19:00:50;0.43;;;0.32;;
33786;SDS011;29742;51.540;9.358;2023-03-20T19:05:53;0.35;;;0.20;;
33786;SDS011;29742;51.540;9.358;2023-03-20T19:10:55;0.30;;;0.30;;
33786;SDS011;29742;51.540;9.358;2023-03-20T19:15:55;0.25;;;0.25;;
33786;SDS011;29742;51.540;9.358;2023-03-20T19:20:56;0.40;;;0.30;;
33786;SDS011;29742;51.540;9.358;2023-03-20T19:25:57;0.73;;;0.30;;
33786;SDS011;29742;51.540;9.358;2023-03-20T19:30:57;0.55;;;0.35;;
33786;SDS011;29742;51.540;9.358;2023-03-20T19:35:57;0.35;;;0.28;;
33786;SDS011;29742;51.540;9.358;2023-03-20T19:40:58;0.20;;;0.20;;
33786;SDS011;29742;51.540;9.358;2023-03-20T19:45:59;0.93;;;0.30;;
33786;SDS011;29742;51.540;9.358;2023-03-20T19:50:59;0.55;;;0.40;;
33786;SDS011;29742;51.540;9.358;2023-03-20T19:56:00;0.30;;;0.28;;
33786;SDS011;29742;51.540;9.358;2023-03-20T20:01:00;0.28;;;0.28;;
33786;SDS011;29742;51.540;9.358;2023-03-20T20:06:01;0.50;;;0.40;;
33786;SDS011;29742;51.540;9.358;2023-03-20T20:11:02;0.20;;;0.20;;
33786;SDS011;29742;51.540;9.358;2023-03-20T20:16:03;0.22;;;0.22;;
33786;SDS011;29742;51.540;9.358;2023-03-20T20:21:04;0.13;;;0.10;;
33786;SDS011;29742;51.540;9.358;2023-03-20T20:26:04;0.20;;;0.20;;
33786;SDS011;29742;51.540;9.358;2023-03-20T20:31:08;1.00;;;0.30;;
33786;SDS011;29742;51.540;9.358;2023-03-20T20:36:09;0.30;;;0.20;;
33786;SDS011;29742;51.540;9.358;2023-03-20T20:41:15;0.45;;;0.17;;
33786;SDS011;29742;51.540;9.358;2023-03-20T20:46:15;0.43;;;0.17;;
33786;SDS011;29742;51.540;9.358;2023-03-20T20:51:16;0.10;;;0.10;;
33786;SDS011;29742;51.540;9.358;2023-03-20T20:56:16;0.10;;;0.10;;
33786;SDS011;29742;51.540;9.358;2023-03-20T21:01:17;0.40;;;0.30;;
33786;SDS011;29742;51.540;9.358;2023-03-20T21:06:17;0.20;;;0.20;;
33786;SDS011;29742;51.540;9.358;2023-03-20T21:11:18;0.20;;;0.20;;
33786;SDS011;29742;51.540;9.358;2023-03-20T21:16:18;0.43;;;0.20;;
33786;SDS011;29742;51.540;9.358;2023-03-20T21:21:18;0.70;;;0.40;;
33786;SDS011;29742;51.540;9.358;2023-03-20T21:26:19;0.40;;;0.20;;
33786;SDS011;29742;51.540;9.358;2023-03-20T21:31:23;0.10;;;0.10;;
33786;SDS011;29742;51.540;9.358;2023-03-20T21:36:24;0.28;;;0.13;;
33786;SDS011;29742;51.540;9.358;2023-03-20T21:41:24;0.10;;;0.10;;
33786;SDS011;29742;51.540;9.358;2023-03-20T21:46:25;0.00;;;0.00;;
33786;SDS011;29742;51.540;9.358;2023-03-20T21:51:25;0.32;;;0.30;;
33786;SDS011;29742;51.540;9.358;2023-03-20T21:56:26;0.17;;;0.10;;
33786;SDS011;29742;51.540;9.358;2023-03-20T22:01:26;0.10;;;0.10;;
33786;SDS011;29742;51.540;9.358;2023-03-20T22:06:27;0.10;;;0.10;;
33786;SDS011;29742;51.540;9.358;2023-03-20T22:11:28;0.15;;;0.13;;
33786;SDS011;29742;51.540;9.358;2023-03-20T22:16:29;0.20;;;0.10;;
33786;SDS011;29742;51.540;9.358;2023-03-20T22:21:30;0.40;;;0.20;;
33786;SDS011;29742;51.540;9.358;2023-03-20T22:26:30;0.28;;;0.25;;
33786;SDS011;29742;51.540;9.358;2023-03-20T22:31:31;0.45;;;0.45;;
33786;SDS011;29742;51.540;9.358;2023-03-20T22:36:31;0.10;;;0.10;;
33786;SDS011;29742;51.540;9.358;2023-03-20T22:41:31;0.03;;;0.03;;
33786;SDS011;29742;51.540;9.358;2023-03-20T22:46:32;0.10;;;0.10;;
33786;SDS011;29742;51.540;9.358;2023-03-20T22:51:32;0.03;;;0.03;;
33786;SDS011;29742;51.540;9.358;2023-03-20T22:56:33;0.15;;;0.15;;
33786;SDS011;29742;51.540;9.358;2023-03-20T23:01:33;0.20;;;0.20;;
33786;SDS011;29742;51.540;9.358;2023-03-20T23:06:34;0.17;;;0.13;;
33786;SDS011;29742;51.540;9.358;2023-03-20T23:11:35;0.38;;;0.30;;
33786;SDS011;29742;51.540;9.358;2023-03-20T23:16:35;0.10;;;0.10;;
33786;SDS011;29742;51.540;9.358;2023-03-20T23:21:35;0.50;;;0.28;;
33786;SDS011;29742;51.540;9.358;2023-03-20T23:26:36;0.57;;;0.20;;
33786;SDS011;29742;51.540;9.358;2023-03-20T23:31:36;0.20;;;0.10;;
33786;SDS011;29742;51.540;9.358;2023-03-20T23:36:37;0.47;;;0.20;;
33786;SDS011;29742;51.540;9.358;2023-03-20T23:41:37;2.05;;;0.20;;
33786;SDS011;29742;51.540;9.358;2023-03-20T23:46:38;0.90;;;0.20;;
33786;SDS011;29742;51.540;9.358;2023-03-20T23:51:38;0.20;;;0.10;;
33786;SDS011;29742;51.540;9.358;2023-03-20T23:56:39;0.10;;;0.10;;
